createdAt,value
2019-04-05T00:01:12.170Z,7.30
2019-04-05T00:03:39.173Z,7.30
2019-04-05T00:06:06.095Z,7.40
2019-04-05T00:08:33.074Z,7.40
2019-04-05T00:11:00.103Z,7.40
2019-04-05T00:13:26.940Z,7.30
2019-04-05T00:15:53.960Z,7.30
2019-04-05T00:18:20.770Z,7.30
2019-04-05T00:20:47.689Z,7.30
2019-04-05T00:23:14.507Z,7.30
2019-04-05T00:25:41.513Z,7.30
2019-04-05T00:28:08.462Z,7.30
2019-04-05T00:30:35.368Z,7.30
2019-04-05T00:33:02.377Z,7.30
2019-04-05T00:35:29.203Z,7.30
2019-04-05T00:37:56.025Z,7.30
2019-04-05T00:40:22.915Z,7.30
2019-04-05T00:42:49.764Z,7.30
2019-04-05T00:45:27.535Z,7.20
2019-04-05T00:47:45.578Z,7.20
2019-04-05T00:50:12.628Z,7.10
2019-04-05T00:52:39.543Z,7.10
2019-04-05T00:55:06.858Z,7.00
2019-04-05T00:57:34.006Z,7.00
2019-04-05T01:00:00.923Z,7.00
2019-04-05T01:02:28.138Z,6.90
2019-04-05T01:04:55.057Z,6.80
2019-04-05T01:07:21.962Z,6.80
2019-04-05T01:09:48.856Z,6.80
2019-04-05T01:12:16.598Z,6.70
2019-04-05T01:14:43.614Z,6.70
2019-04-05T01:17:10.614Z,6.70
2019-04-05T01:19:39.843Z,6.70
2019-04-05T01:22:07.845Z,6.60
2019-04-05T01:24:35.345Z,6.60
2019-04-05T01:27:03.098Z,6.60
2019-04-05T01:29:30.179Z,6.50
2019-04-05T01:31:57.069Z,6.50
2019-04-05T01:34:24.109Z,6.50
2019-04-05T01:36:51.110Z,6.50
2019-04-05T01:39:17.909Z,6.40
2019-04-05T01:41:45.058Z,6.50
2019-04-05T01:44:12.415Z,6.50
2019-04-05T01:46:39.265Z,6.50
2019-04-05T01:49:06.207Z,6.50
2019-04-05T01:51:33.217Z,6.60
2019-04-05T01:54:00.254Z,6.50
2019-04-05T01:56:27.202Z,6.50
2019-04-05T01:58:54.016Z,6.50
2019-04-05T02:01:21.038Z,6.50
2019-04-05T02:03:48.070Z,6.40
2019-04-05T02:06:15.096Z,6.40
2019-04-05T02:08:42.086Z,6.30
2019-04-05T02:11:09.133Z,6.20
2019-04-05T02:13:36.146Z,6.20
2019-04-05T02:16:06.507Z,6.30
2019-04-05T02:18:32.168Z,6.20
2019-04-05T02:20:59.166Z,6.20
2019-04-05T02:23:26.171Z,6.20
2019-04-05T02:25:53.221Z,6.20
2019-04-05T02:28:20.227Z,6.20
2019-04-05T02:30:47.235Z,6.20
2019-04-05T02:33:14.288Z,6.20
2019-04-05T02:35:41.400Z,6.10
2019-04-05T02:38:08.492Z,6.10
2019-04-05T02:40:38.697Z,6.10
2019-04-05T02:43:06.498Z,6.20
2019-04-05T02:45:36.256Z,6.10
2019-04-05T02:48:06.097Z,6.10
2019-04-05T02:50:36.811Z,6.10
2019-04-05T02:53:06.419Z,6.10
2019-04-05T02:55:34.463Z,6.10
2019-04-05T02:58:03.191Z,6.10
2019-04-05T03:00:31.520Z,6.00
2019-04-05T03:02:58.958Z,6.00
2019-04-05T03:05:26.171Z,6.00
2019-04-05T03:07:53.319Z,6.10
2019-04-05T03:10:58.047Z,6.10
2019-04-05T03:13:27.548Z,6.10
2019-04-05T03:15:57.957Z,6.00
2019-04-05T03:18:27.803Z,6.00
2019-04-05T03:20:58.559Z,6.00
2019-04-05T03:23:26.073Z,6.00
2019-04-05T03:25:53.916Z,6.00
2019-04-05T03:28:21.347Z,6.00
2019-04-05T03:30:48.465Z,6.10
2019-04-05T03:33:15.614Z,6.10
2019-04-05T03:35:43.934Z,6.10
2019-04-05T03:38:11.355Z,6.00
2019-04-05T03:40:39.089Z,6.00
2019-04-05T03:43:06.005Z,6.00
2019-04-05T03:45:33.119Z,6.00
2019-04-05T03:48:00.546Z,6.00
2019-04-05T03:50:27.450Z,6.00
2019-04-05T03:52:54.677Z,6.00
2019-04-05T03:55:21.803Z,6.00
2019-04-05T03:57:49.107Z,6.00
2019-04-05T04:00:16.131Z,6.00
2019-04-05T04:02:43.366Z,6.00
2019-04-05T04:05:10.458Z,6.00
2019-04-05T04:07:37.484Z,6.00
2019-04-05T04:10:04.685Z,6.00
2019-04-05T04:12:31.786Z,6.00
2019-04-05T04:15:13.749Z,6.00
2019-04-05T04:17:41.659Z,6.00
2019-04-05T04:20:24.627Z,6.10
2019-04-05T04:22:51.637Z,6.10
2019-04-05T04:25:18.775Z,6.10
2019-04-05T04:27:45.797Z,6.00
2019-04-05T04:30:12.899Z,6.00
2019-04-05T04:32:39.931Z,6.10
2019-04-05T04:35:06.983Z,6.10
2019-04-05T04:37:33.889Z,6.00
2019-04-05T04:40:00.903Z,6.10
2019-04-05T04:42:28.357Z,6.00
2019-04-05T04:44:56.178Z,6.10
2019-04-05T04:47:26.890Z,6.10
2019-04-05T04:49:54.875Z,6.10
2019-04-05T04:52:22.079Z,6.10
2019-04-05T04:54:49.319Z,6.10
2019-04-05T04:57:16.462Z,6.20
2019-04-05T04:59:43.530Z,6.20
2019-04-05T05:02:10.623Z,6.20
2019-04-05T05:04:37.650Z,6.20
2019-04-05T05:07:04.966Z,6.30
2019-04-05T05:09:32.282Z,6.30
2019-04-05T05:11:59.301Z,6.40
2019-04-05T05:14:26.497Z,6.40
2019-04-05T05:16:53.607Z,6.80
2019-04-05T05:19:20.738Z,7.00
2019-04-05T05:21:47.922Z,7.00
2019-04-05T05:24:15.068Z,7.00
2019-04-05T05:26:42.485Z,7.00
2019-04-05T05:29:09.492Z,6.90
2019-04-05T05:31:36.694Z,6.80
2019-04-05T05:34:04.126Z,6.80
2019-04-05T05:36:31.326Z,6.90
2019-04-05T05:38:58.377Z,7.00
2019-04-05T05:41:25.414Z,7.00
2019-04-05T05:43:52.230Z,7.10
2019-04-05T05:46:19.268Z,7.20
2019-04-05T05:48:46.217Z,7.20
2019-04-05T05:51:13.874Z,7.30
2019-04-05T05:53:40.755Z,7.30
2019-04-05T05:56:07.682Z,7.30
2019-04-05T05:58:34.488Z,7.50
2019-04-05T06:01:01.284Z,7.60
2019-04-05T06:03:28.100Z,7.60
2019-04-05T06:06:04.292Z,7.60
2019-04-05T06:08:23.580Z,7.70
2019-04-05T06:10:50.448Z,7.80
2019-04-05T06:13:17.326Z,7.90
2019-04-05T06:15:44.322Z,8.00
2019-04-05T06:18:12.699Z,8.00
2019-04-05T06:20:40.099Z,8.10
2019-04-05T06:23:06.905Z,8.30
2019-04-05T06:25:34.275Z,8.40
2019-04-05T06:28:01.166Z,8.50
2019-04-05T06:30:28.931Z,8.50
2019-04-05T06:32:56.006Z,8.50
2019-04-05T06:35:22.924Z,8.50
2019-04-05T06:37:49.843Z,8.60
2019-04-05T06:40:16.870Z,8.80
2019-04-05T06:42:43.678Z,8.70
2019-04-05T06:45:10.798Z,8.80
2019-04-05T06:47:39.187Z,8.90
2019-04-05T06:50:06.992Z,8.80
2019-04-05T06:52:33.997Z,8.80
2019-04-05T06:55:01.039Z,9.00
2019-04-05T06:57:28.156Z,9.00
2019-04-05T06:59:55.126Z,9.10
2019-04-05T07:02:22.195Z,9.20
2019-04-05T07:04:49.102Z,9.20
2019-04-05T07:07:17.859Z,9.40
2019-04-05T07:09:44.821Z,9.50
2019-04-05T07:12:11.703Z,9.60
2019-04-05T07:14:38.503Z,9.60
2019-04-05T07:17:05.350Z,9.70
2019-04-05T07:19:32.370Z,9.70
2019-04-05T07:21:59.275Z,9.70
2019-04-05T07:24:26.124Z,9.70
2019-04-05T07:26:53.024Z,9.90
2019-04-05T07:29:19.818Z,10.00
2019-04-05T07:31:46.645Z,10.10
2019-04-05T07:34:13.446Z,10.00
2019-04-05T07:36:40.259Z,10.10
2019-04-05T07:39:07.271Z,10.00
2019-04-05T07:41:34.109Z,10.10
2019-04-05T07:44:01.050Z,10.20
2019-04-05T07:46:27.915Z,10.30
2019-04-05T07:48:54.710Z,10.20
2019-04-05T07:51:22.818Z,10.50
2019-04-05T07:53:49.914Z,10.60
2019-04-05T07:56:16.914Z,10.80
2019-04-05T07:58:43.759Z,10.70
2019-04-05T08:01:10.797Z,10.80
2019-04-05T08:03:37.763Z,11.00
2019-04-05T08:06:04.787Z,11.10
2019-04-05T08:08:56.266Z,11.30
2019-04-05T08:11:25.080Z,11.30
2019-04-05T08:13:54.193Z,11.20
2019-04-05T08:16:21.219Z,11.50
2019-04-05T08:18:57.542Z,11.60
2019-04-05T08:21:16.998Z,11.70
2019-04-05T08:23:44.114Z,11.90
2019-04-05T08:26:11.014Z,11.80
2019-04-05T08:28:37.938Z,11.80
2019-04-05T08:31:04.833Z,12.10
2019-04-05T08:33:31.646Z,12.30
2019-04-05T08:35:58.537Z,12.40
2019-04-05T08:38:25.375Z,12.40
2019-04-05T08:40:52.184Z,12.50
2019-04-05T08:43:19.119Z,12.50
2019-04-05T08:45:46.262Z,12.60
2019-04-05T08:48:13.166Z,12.80
2019-04-05T08:50:39.956Z,12.90
2019-04-05T08:53:06.902Z,13.10
2019-04-05T08:55:33.828Z,13.10
2019-04-05T08:58:00.719Z,13.40
2019-04-05T09:00:27.777Z,13.30
2019-04-05T09:02:54.761Z,13.20
2019-04-05T09:05:21.761Z,13.10
2019-04-05T09:07:48.738Z,13.20
2019-04-05T09:10:15.637Z,13.40
2019-04-05T09:12:42.442Z,13.50
2019-04-05T09:15:09.478Z,13.70
2019-04-05T09:17:36.279Z,13.60
2019-04-05T09:20:03.712Z,13.60
2019-04-05T09:22:30.542Z,13.80
2019-04-05T09:24:57.325Z,13.90
2019-04-05T09:27:24.118Z,13.80
2019-04-05T09:29:51.038Z,13.70
2019-04-05T09:32:18.061Z,13.80
2019-04-05T09:34:44.911Z,13.80
2019-04-05T09:37:11.862Z,13.80
2019-04-05T09:39:38.673Z,14.00
2019-04-05T09:42:05.469Z,14.00
2019-04-05T09:44:32.298Z,14.10
2019-04-05T09:46:59.114Z,14.50
2019-04-05T09:49:36.057Z,14.20
2019-04-05T09:51:54.843Z,14.30
2019-04-05T09:54:21.742Z,14.30
2019-04-05T09:56:48.622Z,14.40
2019-04-05T09:59:15.689Z,14.30
2019-04-05T10:01:42.586Z,14.70
2019-04-05T10:04:09.377Z,14.50
2019-04-05T10:06:36.309Z,14.50
2019-04-05T10:09:05.642Z,14.60
2019-04-05T10:11:32.434Z,14.60
2019-04-05T10:13:59.253Z,14.80
2019-04-05T10:16:26.147Z,14.80
2019-04-05T10:18:52.950Z,14.70
2019-04-05T10:21:19.823Z,14.90
2019-04-05T10:24:06.247Z,14.70
2019-04-05T10:26:33.094Z,15.00
2019-04-05T10:29:00.031Z,15.20
2019-04-05T10:31:26.806Z,15.10
2019-04-05T10:33:53.641Z,15.10
2019-04-05T10:36:20.450Z,15.00
2019-04-05T10:38:47.283Z,15.00
2019-04-05T10:41:14.126Z,15.10
2019-04-05T10:43:40.931Z,15.30
2019-04-05T10:46:08.325Z,15.20
2019-04-05T10:48:35.523Z,15.00
2019-04-05T10:51:03.262Z,15.10
2019-04-05T10:53:30.151Z,15.20
2019-04-05T10:55:57.025Z,15.30
2019-04-05T10:58:24.538Z,15.10
2019-04-05T11:00:51.626Z,15.10
2019-04-05T11:03:18.567Z,15.00
2019-04-05T11:05:45.363Z,15.20
2019-04-05T11:08:12.280Z,15.30
2019-04-05T11:10:39.102Z,15.40
2019-04-05T11:13:06.035Z,15.50
2019-04-05T11:15:33.030Z,15.20
2019-04-05T11:17:59.870Z,15.20
2019-04-05T11:20:26.665Z,15.30
2019-04-05T11:22:53.598Z,15.30
2019-04-05T11:25:21.182Z,15.20
2019-04-05T11:27:48.272Z,15.10
2019-04-05T11:30:38.297Z,15.30
2019-04-05T11:33:05.102Z,15.50
2019-04-05T11:35:32.053Z,15.60
2019-04-05T11:37:59.078Z,15.60
2019-04-05T11:40:26.122Z,15.30
2019-04-05T11:42:54.254Z,15.60
2019-04-05T11:45:21.173Z,15.50
2019-04-05T11:47:49.271Z,15.40
2019-04-05T11:50:16.294Z,15.60
2019-04-05T11:52:43.319Z,15.60
2019-04-05T11:55:10.436Z,15.50
2019-04-05T11:57:40.811Z,15.50
2019-04-05T12:00:12.486Z,15.50
2019-04-05T12:02:45.927Z,15.50
2019-04-05T12:05:14.554Z,15.40
2019-04-05T12:07:41.362Z,15.40
2019-04-05T12:10:08.382Z,15.40
2019-04-05T12:12:35.213Z,15.40
2019-04-05T12:15:02.539Z,15.40
2019-04-05T12:17:29.330Z,15.30
2019-04-05T12:19:56.259Z,15.30
2019-04-05T12:22:23.051Z,15.30
2019-04-05T12:24:49.905Z,15.70
2019-04-05T12:27:16.855Z,15.70
2019-04-05T12:29:43.670Z,15.50
2019-04-05T12:32:13.128Z,15.50
2019-04-05T12:34:39.184Z,15.40
2019-04-05T12:37:06.018Z,15.30
2019-04-05T12:39:36.267Z,15.30
2019-04-05T12:42:01.548Z,15.10
2019-04-05T12:44:28.344Z,15.30
2019-04-05T12:46:55.126Z,15.40
2019-04-05T12:49:21.955Z,15.20
2019-04-05T12:51:48.937Z,15.40
2019-04-05T12:54:16.069Z,15.00
2019-04-05T12:56:43.126Z,15.10
2019-04-05T12:59:10.149Z,15.30
2019-04-05T13:01:36.965Z,15.20
2019-04-05T13:04:04.060Z,15.20
2019-04-05T13:06:30.861Z,15.20
2019-04-05T13:08:57.770Z,15.40
2019-04-05T13:11:26.724Z,15.30
2019-04-05T13:13:54.355Z,15.20
2019-04-05T13:16:22.031Z,14.80
2019-04-05T13:18:48.854Z,14.70
2019-04-05T13:21:15.729Z,14.90
2019-04-05T13:23:42.563Z,14.70
2019-04-05T13:26:11.689Z,14.70
2019-04-05T13:28:38.190Z,14.80
2019-04-05T13:31:05.040Z,14.40
2019-04-05T13:33:31.895Z,14.50
2019-04-05T13:35:58.707Z,14.60
2019-04-05T13:38:25.734Z,14.60
2019-04-05T13:40:52.655Z,14.50
2019-04-05T13:43:19.442Z,14.40
2019-04-05T13:45:46.249Z,14.30
2019-04-05T13:48:13.097Z,14.30
2019-04-05T13:50:41.632Z,14.50
2019-04-05T13:53:11.161Z,14.30
2019-04-05T13:55:38.518Z,14.20
2019-04-05T13:58:06.526Z,14.10
2019-04-05T14:00:33.455Z,14.10
2019-04-05T14:03:00.290Z,14.20
2019-04-05T14:05:27.092Z,14.00
2019-04-05T14:08:09.163Z,13.80
2019-04-05T14:10:22.857Z,13.70
2019-04-05T14:12:49.749Z,13.70
2019-04-05T14:15:16.745Z,13.70
2019-04-05T14:17:44.738Z,13.60
2019-04-05T14:20:13.906Z,13.50
2019-04-05T14:22:40.700Z,13.40
2019-04-05T14:25:09.110Z,13.40
2019-04-05T14:27:36.169Z,13.40
2019-04-05T14:30:04.119Z,13.30
2019-04-05T14:32:31.141Z,13.20
2019-04-05T14:34:58.308Z,13.10
2019-04-05T14:37:25.215Z,13.10
2019-04-05T14:39:52.163Z,13.10
2019-04-05T14:42:19.049Z,13.00
2019-04-05T14:44:45.847Z,13.00
2019-04-05T14:47:12.773Z,13.00
2019-04-05T14:49:39.676Z,12.90
2019-04-05T14:52:06.464Z,12.80
2019-04-05T14:54:33.302Z,12.70
2019-04-05T14:57:04.797Z,12.70
2019-04-05T14:59:29.066Z,12.70
2019-04-05T15:01:55.898Z,12.70
2019-04-05T15:04:22.694Z,12.60
2019-04-05T15:06:50.626Z,12.40
2019-04-05T15:09:21.418Z,12.40
2019-04-05T15:11:47.047Z,12.40
2019-04-05T15:14:13.847Z,12.30
2019-04-05T15:16:40.794Z,12.30
2019-04-05T15:19:07.604Z,12.20
2019-04-05T15:21:34.814Z,12.10
2019-04-05T15:24:02.251Z,12.10
2019-04-05T15:26:29.061Z,12.10
2019-04-05T15:28:55.888Z,12.10
2019-04-05T15:31:25.878Z,12.00
2019-04-05T15:33:51.606Z,12.00
2019-04-05T15:36:18.519Z,11.80
2019-04-05T15:38:45.467Z,11.80
2019-04-05T15:41:12.353Z,11.70
2019-04-05T15:43:39.162Z,11.70
2019-04-05T15:46:06.205Z,11.60
2019-04-05T15:48:33.227Z,11.40
2019-04-05T15:51:00.238Z,11.40
2019-04-05T15:53:46.870Z,11.50
2019-04-05T15:56:34.249Z,11.50
2019-04-05T15:59:15.201Z,11.30
2019-04-05T16:01:55.150Z,11.20
2019-04-05T16:04:34.996Z,11.10
2019-04-05T16:07:14.835Z,11.10
2019-04-05T16:09:54.696Z,10.90
2019-04-05T16:12:34.777Z,10.90
2019-04-05T16:15:14.369Z,10.80
2019-04-05T16:17:54.328Z,10.70
2019-04-05T16:20:34.229Z,10.70
2019-04-05T16:23:14.005Z,10.60
2019-04-05T16:25:57.671Z,10.50
2019-04-05T16:28:41.139Z,10.30
2019-04-05T16:31:21.143Z,10.30
2019-04-05T16:34:02.118Z,10.20
2019-04-05T16:36:41.925Z,10.20
2019-04-05T16:39:21.925Z,10.10
2019-04-05T16:42:01.883Z,10.00
2019-04-05T16:47:30.670Z,9.80
2019-04-05T16:50:10.814Z,9.80
2019-04-05T16:52:50.770Z,9.70
2019-04-05T16:58:13.127Z,9.50
2019-04-05T17:00:53.061Z,9.40
2019-04-05T17:03:33.098Z,9.40
2019-04-05T17:06:13.292Z,9.30
2019-04-05T17:08:53.220Z,9.20
2019-04-05T17:11:32.951Z,9.10
2019-04-05T17:14:12.318Z,9.10
2019-04-05T17:16:52.284Z,9.10
2019-04-05T17:19:32.475Z,9.00
2019-04-05T17:25:03.794Z,9.00
2019-04-05T17:27:43.129Z,9.00
2019-04-05T17:30:23.359Z,8.90
2019-04-05T17:35:47.142Z,8.70
2019-04-05T17:38:27.011Z,8.70
2019-04-05T17:41:10.634Z,8.60
2019-04-05T17:43:49.968Z,8.50
2019-04-05T17:46:30.186Z,8.50
2019-04-05T17:49:10.118Z,8.40
2019-04-05T17:51:49.996Z,8.40
2019-04-05T17:54:29.980Z,8.50
2019-04-05T17:57:10.164Z,8.40
2019-04-05T17:59:50.090Z,8.50
2019-04-05T18:02:30.097Z,8.50
2019-04-05T18:05:09.937Z,8.40
2019-04-05T18:07:50.350Z,8.40
2019-04-05T18:10:29.994Z,8.40
2019-04-05T18:13:10.010Z,8.40
2019-04-05T18:15:52.673Z,8.40
2019-04-05T18:18:31.906Z,8.40
2019-04-05T18:21:12.186Z,8.40
2019-04-05T18:23:52.173Z,8.40
2019-04-05T18:26:32.083Z,8.40
2019-04-05T18:29:11.978Z,8.40
2019-04-05T18:31:51.798Z,8.50
2019-04-05T18:34:32.081Z,8.50
2019-04-05T18:37:12.478Z,8.50
2019-04-05T18:39:52.464Z,8.50
2019-04-05T18:42:32.337Z,8.50
2019-04-05T18:45:12.261Z,8.60
2019-04-05T18:47:51.646Z,8.60
2019-04-05T18:50:32.008Z,8.60
2019-04-05T18:53:11.767Z,8.50
2019-04-05T18:55:51.818Z,8.50
2019-04-05T18:58:32.071Z,8.50
2019-04-05T19:04:09.056Z,8.50
2019-04-05T19:09:33.146Z,8.40
2019-04-05T19:12:13.155Z,8.50
2019-04-05T19:14:53.395Z,8.50
2019-04-05T19:17:33.274Z,8.40
2019-04-05T19:20:13.302Z,8.40
2019-04-05T19:23:00.091Z,8.50
2019-04-05T19:25:40.503Z,8.50
2019-04-05T19:28:20.128Z,8.50
2019-04-05T19:49:56.070Z,8.70
2019-04-05T19:52:36.230Z,8.70
2019-04-05T19:55:16.460Z,8.70
2019-04-05T19:57:59.862Z,8.70
2019-04-05T20:03:26.164Z,8.60
2019-04-05T20:06:07.874Z,8.50
2019-04-05T20:08:47.528Z,8.50
2019-04-05T20:11:27.543Z,8.50
2019-04-05T20:14:07.474Z,8.40
2019-04-05T20:16:47.667Z,8.40
2019-04-05T20:19:31.057Z,8.30
2019-04-05T20:22:10.679Z,8.30
2019-04-05T20:24:50.735Z,8.20
2019-04-05T20:27:31.082Z,8.00
2019-04-05T20:30:10.849Z,8.00
2019-04-05T20:32:50.734Z,8.00
2019-04-05T20:35:29.956Z,8.00
2019-04-05T20:38:09.988Z,8.20
2019-04-05T20:40:50.251Z,8.20
2019-04-05T20:43:30.223Z,8.10
2019-04-05T20:46:10.426Z,8.10
2019-04-05T20:48:50.271Z,8.20
2019-04-05T20:51:30.568Z,8.30
2019-04-05T20:54:10.562Z,8.30
2019-04-05T20:56:50.533Z,8.30
2019-04-05T20:59:30.585Z,8.40
2019-04-05T21:02:10.566Z,8.40
2019-04-05T21:04:50.499Z,8.40
2019-04-05T21:07:30.888Z,8.40
2019-04-05T21:10:10.677Z,8.50
2019-04-05T21:12:54.246Z,8.50
2019-04-05T21:15:33.535Z,8.50
2019-04-05T21:18:13.623Z,8.50
2019-04-05T21:20:53.580Z,8.50
2019-04-05T21:23:33.590Z,8.50
2019-04-05T21:26:13.680Z,8.50
2019-04-05T21:28:53.649Z,8.50
2019-04-05T21:31:33.395Z,8.50
2019-04-05T21:34:13.555Z,8.50
2019-04-05T21:39:35.352Z,8.50
2019-04-05T21:44:59.493Z,8.50
2019-04-05T21:47:39.271Z,8.50
2019-04-05T21:50:19.234Z,8.40
2019-04-05T21:52:59.144Z,8.40
2019-04-05T21:55:39.424Z,8.40
2019-04-05T21:58:22.808Z,8.30
2019-04-05T22:01:06.892Z,8.10
2019-04-05T22:03:49.866Z,8.10
2019-04-05T22:06:29.287Z,8.20
2019-04-05T22:09:10.186Z,8.20
2019-04-05T22:11:50.447Z,8.10
2019-04-05T22:14:30.486Z,8.10
2019-04-05T22:17:10.386Z,8.10
2019-04-05T22:19:50.314Z,8.00
2019-04-05T22:22:30.692Z,7.90
2019-04-05T22:25:10.940Z,7.90
2019-04-05T22:27:50.959Z,7.90
2019-04-05T22:30:31.041Z,7.90
2019-04-05T22:33:11.032Z,7.90
2019-04-05T22:35:51.074Z,7.90
2019-04-05T22:38:31.090Z,8.00
2019-04-05T22:41:11.288Z,8.00
2019-04-05T22:43:50.858Z,8.10
2019-04-05T22:46:30.708Z,8.10
2019-04-05T22:49:10.547Z,8.10
2019-04-05T22:51:50.518Z,8.10
2019-04-05T22:54:30.583Z,8.00
2019-04-05T22:57:10.411Z,7.90
2019-04-05T22:59:50.204Z,7.90
2019-04-05T23:02:30.463Z,7.90
2019-04-05T23:05:10.650Z,7.90
2019-04-05T23:07:51.026Z,7.90
2019-04-05T23:10:30.782Z,7.80
2019-04-05T23:13:11.201Z,7.70
2019-04-05T23:15:50.980Z,7.70
2019-04-05T23:18:31.055Z,7.70
2019-04-05T23:21:11.201Z,7.60
2019-04-05T23:23:51.310Z,7.60
2019-04-05T23:26:31.379Z,7.50
2019-04-05T23:29:11.568Z,7.60
2019-04-05T23:31:51.361Z,7.60
2019-04-05T23:34:31.475Z,7.50
2019-04-05T23:37:09.079Z,7.50
2019-04-05T23:39:48.642Z,7.60
2019-04-05T23:42:28.823Z,7.60
2019-04-05T23:45:08.925Z,7.50
2019-04-05T23:47:48.760Z,7.40
2019-04-05T23:50:28.894Z,7.40
2019-04-05T23:53:08.620Z,7.30
2019-04-05T23:55:48.603Z,7.40
2019-04-05T23:58:28.526Z,7.40
